Mackinaw City, MI (49701)

3:17 PM EST on December 06, 2016 (GMT -0500)
Mackinac Bridge | | Change Station

Elev 587 ft 45.79 °N, 84.73 °W | Updated 8 seconds ago

Scattered Clouds
Scattered Clouds
43.4 °F
Feels Like 37 °F
N
11.0
Wind Variable Wind from North

Today
High -- | Low -- °F
--% Chance of Precip.
Yesterday
High -- | Low -- °F
Precip. -- in
Pressure 29.69 in
Visibility 10.0 miles
Clouds Scattered Clouds 2300 ft
Windchill 37 °F
Dew Point 33 °F
Humidity 69%
Rainfall Not available.
Snow Depth Not available.
8:05 AM 4:54 PM
Waxing Crescent, 44% visible
METAR KMCD 061955Z AUTO 12013G23KT 10SM SCT023 04/00 A2969 RMK AO2 T00431003
Pressure 29.69 in
Visibility 10.0 miles
Clouds Scattered Clouds 2300 ft
Windchill 37 °F
Dew Point 33 °F
Humidity 69%
Rainfall Not available.
Snow Depth Not available.
8:05 AM 4:54 PM
Waxing Crescent, 44% visible
METAR KMCD 061955Z AUTO 12013G23KT 10SM SCT023 04/00 A2969 RMK AO2 T00431003

10-Day Weather Forecast

Almanac

Astronomy

Dec. 06, 2016 Rise Set
Actual Time
Civil Twilight
Nautical Twilight
Astronomical Twilight
Moon
Length of Visible Light
Length of Day
Tomorrow will be .
, % of the Moon is Illuminated

Today's Extremes

State Highs State Lows

Community

WunderPhotos

Upload Photos

1,956,022 photos uploaded!

WunderBlog® & News

Nearby

Air Quality

  Air Quality AQ Index Pollutant
Not available.

Snow Depth

Station Depth Elevation

Earthquake Activity

City Distance Mag. Time & Date
Minimum magnitude displayed is 2.5.

Coastal Water Temperatures

Place Temperature

Stations

Nearby Weather Stations

Station Location Temp. Windchill Dew Point Humidity Wind Precip. Elev Updated Type
                   

Watches & Warnings

There are currently no watches in effect.